createdAt,value
2023-03-21T00:01:53.566Z,15.40
2023-03-21T00:04:28.321Z,12.93
2023-03-21T00:06:56.691Z,17.42
2023-03-21T00:09:24.274Z,14.25
2023-03-21T00:11:51.131Z,14.77
2023-03-21T00:14:20.868Z,13.52
2023-03-21T00:16:52.174Z,15.93
2023-03-21T00:19:21.127Z,16.52
2023-03-21T00:22:08.760Z,14.77
2023-03-21T00:24:37.340Z,15.95
2023-03-21T00:27:33.731Z,18.92
2023-03-21T00:29:55.322Z,16.33
2023-03-21T00:32:22.765Z,19.20
2023-03-21T00:35:34.805Z,14.48
2023-03-21T00:37:37.240Z,12.88
2023-03-21T00:40:23.109Z,13.07
2023-03-21T00:42:52.531Z,19.02
2023-03-21T00:45:21.908Z,19.58
2023-03-21T00:47:49.108Z,17.70
2023-03-21T00:50:16.564Z,17.60
2023-03-21T00:52:43.863Z,18.88
2023-03-21T00:55:17.810Z,21.45
2023-03-21T00:57:47.460Z,18.90
2023-03-21T01:00:20.148Z,20.33
2023-03-21T01:03:02.546Z,21.10
2023-03-21T01:06:00.882Z,19.40
2023-03-21T01:08:35.236Z,17.52
2023-03-21T01:11:15.731Z,19.08
2023-03-21T01:13:53.749Z,22.63
2023-03-21T01:16:25.429Z,19.98
2023-03-21T01:18:53.080Z,19.42
2023-03-21T01:21:20.645Z,18.35
2023-03-21T01:23:48.072Z,20.27
2023-03-21T01:26:15.943Z,19.23
2023-03-21T01:28:45.993Z,22.70
2023-03-21T01:31:16.882Z,20.63
2023-03-21T01:33:45.292Z,20.27
2023-03-21T01:36:23.565Z,20.42
2023-03-21T01:38:54.167Z,18.95
2023-03-21T01:41:43.455Z,17.80
2023-03-21T01:44:26.472Z,20.75
2023-03-21T01:47:12.272Z,16.98
2023-03-21T01:49:52.749Z,18.35
2023-03-21T01:52:37.048Z,18.42
2023-03-21T01:55:14.678Z,17.60
2023-03-21T01:58:05.467Z,23.20
2023-03-21T02:01:10.720Z,15.85
2023-03-21T02:03:50.841Z,20.45
2023-03-21T02:07:07.347Z,18.15
2023-03-21T02:09:50.794Z,18.73
2023-03-21T02:12:21.173Z,23.48
2023-03-21T02:14:51.649Z,20.33
2023-03-21T02:18:15.396Z,12.85
2023-03-21T02:21:46.374Z,20.98
2023-03-21T02:25:01.268Z,20.92
2023-03-21T02:27:47.161Z,18.95
2023-03-21T02:30:50.787Z,16.42
2023-03-21T02:34:10.026Z,18.40
2023-03-21T02:37:07.292Z,15.32
2023-03-21T02:40:19.886Z,14.40
2023-03-21T02:43:22.546Z,15.20
2023-03-21T02:46:16.770Z,16.20
2023-03-21T02:49:01.067Z,15.77
2023-03-21T02:51:32.450Z,20.10
2023-03-21T02:54:28.268Z,18.00
2023-03-21T02:59:29.025Z,15.18
2023-03-21T03:02:00.365Z,14.82
2023-03-21T03:04:28.728Z,18.92
2023-03-21T03:06:58.609Z,14.10
2023-03-21T03:09:49.045Z,17.05
2023-03-21T03:12:37.567Z,17.05
2023-03-21T03:15:48.066Z,18.95
2023-03-21T03:18:46.109Z,19.80
2023-03-21T03:21:47.478Z,16.42
2023-03-21T03:24:53.716Z,16.55
2023-03-21T03:27:32.442Z,14.98
2023-03-21T03:30:07.946Z,15.80
2023-03-21T03:32:48.924Z,20.73
2023-03-21T03:35:20.178Z,16.75
2023-03-21T03:37:56.514Z,16.60
2023-03-21T03:40:49.534Z,16.45
2023-03-21T03:43:43.510Z,17.15
2023-03-21T03:46:21.946Z,15.55
2023-03-21T03:49:19.333Z,17.10
2023-03-21T03:52:04.074Z,17.90
2023-03-21T03:54:44.107Z,18.40
2023-03-21T03:57:13.898Z,16.48
2023-03-21T03:59:45.238Z,17.75
2023-03-21T04:02:23.709Z,18.20
2023-03-21T04:04:53.709Z,16.65
2023-03-21T04:07:22.376Z,17.63
2023-03-21T04:09:51.920Z,15.95
2023-03-21T04:12:20.728Z,17.85
2023-03-21T04:15:23.299Z,16.27
2023-03-21T04:18:15.376Z,19.30
2023-03-21T04:21:03.623Z,16.10
2023-03-21T04:23:50.460Z,19.02
2023-03-21T04:26:39.552Z,18.73
2023-03-21T04:29:49.272Z,19.95
2023-03-21T04:35:45.635Z,16.05
2023-03-21T04:38:33.766Z,21.65
2023-03-21T04:41:22.916Z,15.80
2023-03-21T04:44:11.872Z,20.15
2023-03-21T04:46:58.632Z,19.63
2023-03-21T04:49:45.816Z,20.30
2023-03-21T04:52:17.795Z,24.00
2023-03-21T04:54:55.337Z,18.65
2023-03-21T04:57:42.812Z,19.48
2023-03-21T05:00:29.607Z,20.40
2023-03-21T05:03:19.791Z,20.65
2023-03-21T05:06:09.544Z,22.77
2023-03-21T05:09:01.528Z,21.05
2023-03-21T05:11:49.696Z,18.35
2023-03-21T05:14:37.487Z,19.73
2023-03-21T05:17:28.472Z,22.45
2023-03-21T05:20:17.710Z,22.50
2023-03-21T05:23:04.445Z,20.05
2023-03-21T05:25:51.364Z,19.15
2023-03-21T05:28:50.040Z,19.23
2023-03-21T05:31:36.992Z,17.48
2023-03-21T05:34:29.681Z,21.05
2023-03-21T05:37:16.475Z,16.90
2023-03-21T05:40:09.728Z,16.20
2023-03-21T05:42:59.216Z,16.02
2023-03-21T05:45:50.432Z,16.52
2023-03-21T05:48:38.313Z,14.60
2023-03-21T05:51:33.953Z,18.20
2023-03-21T05:54:21.262Z,17.08
2023-03-21T05:57:09.668Z,13.68
2023-03-21T06:00:21.847Z,15.50
2023-03-21T06:03:28.236Z,19.00
2023-03-21T06:06:00.961Z,16.33
2023-03-21T06:08:34.375Z,14.88
2023-03-21T06:11:01.959Z,18.02
2023-03-21T06:13:32.919Z,16.38
2023-03-21T06:16:00.196Z,15.80
2023-03-21T06:18:28.057Z,14.88
2023-03-21T06:21:16.401Z,15.65
2023-03-21T06:23:43.572Z,16.00
2023-03-21T06:26:11.594Z,20.98
2023-03-21T06:28:39.678Z,15.00
2023-03-21T06:31:07.262Z,17.55
2023-03-21T06:33:34.640Z,16.85
2023-03-21T06:36:02.064Z,20.35
2023-03-21T06:38:29.768Z,17.30
2023-03-21T06:40:57.241Z,15.60
2023-03-21T06:43:25.634Z,16.58
2023-03-21T06:45:52.625Z,17.00
2023-03-21T06:48:21.001Z,18.60
2023-03-21T06:50:53.638Z,20.27
2023-03-21T06:53:27.147Z,18.25
2023-03-21T06:56:15.615Z,14.93
2023-03-21T06:58:43.584Z,15.25
2023-03-21T07:01:19.023Z,18.83
2023-03-21T07:03:58.955Z,16.05
2023-03-21T07:06:28.539Z,14.10
2023-03-21T07:08:56.404Z,18.45
2023-03-21T07:11:25.617Z,17.30
2023-03-21T07:13:52.969Z,19.55
2023-03-21T07:16:21.760Z,18.42
2023-03-21T07:18:48.966Z,14.95
2023-03-21T07:21:16.648Z,16.45
2023-03-21T07:23:44.343Z,16.00
2023-03-21T07:26:12.052Z,13.95
2023-03-21T07:28:39.475Z,13.85
2023-03-21T07:31:08.393Z,14.27
2023-03-21T07:33:35.383Z,17.02
2023-03-21T07:36:03.124Z,10.68
2023-03-21T07:38:31.116Z,12.18
2023-03-21T07:41:00.665Z,10.90
2023-03-21T07:43:31.200Z,10.57
2023-03-21T07:45:59.918Z,12.40
2023-03-21T07:48:28.660Z,10.65
2023-03-21T07:50:56.316Z,10.38
2023-03-21T07:53:23.393Z,15.02
2023-03-21T07:55:52.764Z,9.90
2023-03-21T07:58:19.777Z,10.18
2023-03-21T08:00:46.849Z,12.25
2023-03-21T08:03:13.783Z,12.18
2023-03-21T08:05:42.080Z,10.48
2023-03-21T08:08:09.169Z,13.02
2023-03-21T08:10:36.859Z,14.35
2023-03-21T08:13:04.497Z,8.95
2023-03-21T08:15:31.440Z,13.95
2023-03-21T08:18:00.280Z,11.27
2023-03-21T08:20:27.991Z,12.52
2023-03-21T08:22:55.359Z,17.67
2023-03-21T08:25:23.143Z,16.70
2023-03-21T08:27:51.772Z,12.45
2023-03-21T08:30:22.887Z,15.55
2023-03-21T08:32:51.018Z,15.25
2023-03-21T08:35:20.456Z,13.70
2023-03-21T08:37:48.708Z,17.83
2023-03-21T08:40:18.755Z,14.45
2023-03-21T08:42:47.059Z,12.13
2023-03-21T08:45:17.808Z,11.60
2023-03-21T08:47:46.174Z,13.25
2023-03-21T08:50:20.899Z,12.00
2023-03-21T08:52:48.980Z,12.18
2023-03-21T08:55:18.463Z,13.68
2023-03-21T08:57:46.538Z,16.08
2023-03-21T09:00:17.864Z,13.43
2023-03-21T09:02:48.500Z,12.82
2023-03-21T09:05:16.928Z,13.48
2023-03-21T09:07:45.725Z,14.82
2023-03-21T09:10:21.973Z,13.32
2023-03-21T09:12:52.609Z,12.73
2023-03-21T09:15:21.637Z,14.38
2023-03-21T09:17:52.742Z,10.13
2023-03-21T09:20:30.660Z,12.48
2023-03-21T09:22:59.700Z,12.77
2023-03-21T09:25:29.541Z,10.70
2023-03-21T09:27:58.122Z,10.38
2023-03-21T09:30:26.457Z,12.48
2023-03-21T09:32:55.692Z,10.55
2023-03-21T09:35:24.733Z,10.88
2023-03-21T09:37:51.840Z,7.95
2023-03-21T09:40:56.249Z,11.18
2023-03-21T09:43:39.661Z,11.00
2023-03-21T09:46:17.813Z,12.85
2023-03-21T09:49:07.780Z,13.77
2023-03-21T09:51:41.294Z,12.50
2023-03-21T09:54:26.987Z,10.93
2023-03-21T09:57:01.029Z,14.10
2023-03-21T09:59:41.177Z,9.93
2023-03-21T10:02:47.201Z,14.02
2023-03-21T10:05:21.017Z,11.85
2023-03-21T10:08:07.188Z,9.68
2023-03-21T10:11:03.789Z,10.32
2023-03-21T10:13:41.073Z,11.90
2023-03-21T10:16:17.314Z,11.48
2023-03-21T10:18:46.745Z,12.98
2023-03-21T10:21:47.478Z,11.32
2023-03-21T10:24:18.622Z,11.13
2023-03-21T10:26:48.084Z,9.70
2023-03-21T10:29:18.500Z,11.70
2023-03-21T10:31:47.544Z,10.25
2023-03-21T10:34:31.189Z,9.35
2023-03-21T10:37:01.838Z,8.85
2023-03-21T10:39:47.153Z,8.82
2023-03-21T10:42:29.645Z,10.30
2023-03-21T10:44:57.787Z,9.73
2023-03-21T10:47:30.175Z,9.40
2023-03-21T10:50:13.231Z,11.70
2023-03-21T10:52:51.348Z,9.38
2023-03-21T10:55:34.543Z,8.55
2023-03-21T10:58:10.884Z,12.85
2023-03-21T11:00:41.971Z,9.13
2023-03-21T11:03:43.680Z,14.38
2023-03-21T11:06:33.830Z,11.18
2023-03-21T11:09:17.805Z,11.82
2023-03-21T11:12:04.242Z,18.65
2023-03-21T11:14:41.825Z,14.35
2023-03-21T11:17:17.778Z,10.55
2023-03-21T11:20:05.484Z,9.13
2023-03-21T11:22:42.457Z,9.63
2023-03-21T11:25:39.265Z,8.50
2023-03-21T11:28:17.548Z,10.85
2023-03-21T11:30:58.000Z,9.90
2023-03-21T11:33:36.545Z,8.00
2023-03-21T11:36:18.608Z,8.85
2023-03-21T11:38:54.215Z,10.68
2023-03-21T11:41:35.080Z,9.85
2023-03-21T11:44:03.097Z,17.88
2023-03-21T11:46:39.660Z,8.55
2023-03-21T11:49:10.678Z,11.65
2023-03-21T11:51:53.123Z,14.30
2023-03-21T11:54:35.275Z,9.52
2023-03-21T11:57:12.729Z,11.27
2023-03-21T11:59:58.169Z,12.73
2023-03-21T12:03:22.266Z,9.55
2023-03-21T12:06:07.363Z,7.13
2023-03-21T12:08:54.398Z,8.85
2023-03-21T12:11:45.893Z,9.35
2023-03-21T12:14:39.645Z,8.32
2023-03-21T12:17:53.010Z,12.52
2023-03-21T12:20:59.783Z,10.35
2023-03-21T12:23:54.910Z,8.25
2023-03-21T12:26:38.489Z,10.52
2023-03-21T12:29:27.688Z,9.95
2023-03-21T12:32:20.804Z,10.32
2023-03-21T12:35:25.147Z,9.00
2023-03-21T12:38:16.826Z,9.90
2023-03-21T12:41:03.311Z,11.68
2023-03-21T12:43:50.858Z,14.48
2023-03-21T12:46:53.153Z,4.63
2023-03-21T12:49:53.435Z,9.35
2023-03-21T12:52:35.526Z,11.02
2023-03-21T12:55:16.686Z,7.18
2023-03-21T12:58:04.783Z,7.78
2023-03-21T13:00:46.115Z,8.70
2023-03-21T13:03:33.581Z,10.65
2023-03-21T13:06:09.614Z,6.10
2023-03-21T13:08:48.633Z,10.50
2023-03-21T13:11:21.764Z,6.03
2023-03-21T13:14:29.306Z,7.35
2023-03-21T13:17:02.122Z,8.32
2023-03-21T13:19:42.063Z,6.65
2023-03-21T13:22:21.117Z,5.75
2023-03-21T13:25:20.674Z,8.52
2023-03-21T13:28:18.673Z,8.80
2023-03-21T13:30:48.763Z,6.88
2023-03-21T13:33:44.589Z,9.10
2023-03-21T13:36:22.768Z,9.55
2023-03-21T13:38:53.674Z,13.05
2023-03-21T13:41:38.858Z,8.13
2023-03-21T13:44:23.494Z,5.07
2023-03-21T13:47:22.035Z,4.90
2023-03-21T13:50:33.494Z,8.10
2023-03-21T13:53:15.821Z,5.35
2023-03-21T13:55:49.113Z,10.32
2023-03-21T13:58:48.583Z,9.37
2023-03-21T14:01:26.559Z,11.15
2023-03-21T14:04:14.354Z,5.32
2023-03-21T14:07:08.036Z,5.28
2023-03-21T14:09:52.015Z,6.70
2023-03-21T14:12:30.351Z,7.07
2023-03-21T14:15:20.792Z,4.72
2023-03-21T14:17:56.473Z,9.90
2023-03-21T14:20:29.537Z,6.60
2023-03-21T14:22:56.977Z,5.43
2023-03-21T14:25:37.287Z,8.60
2023-03-21T14:28:24.542Z,6.47
2023-03-21T14:30:57.909Z,8.05
2023-03-21T14:33:40.499Z,7.78
2023-03-21T14:36:15.506Z,10.30
2023-03-21T14:38:43.389Z,7.65
2023-03-21T14:41:28.147Z,5.93
2023-03-21T14:44:27.909Z,5.78
2023-03-21T14:47:06.187Z,11.15
2023-03-21T14:49:36.244Z,8.35
2023-03-21T14:52:11.142Z,7.32
2023-03-21T14:54:44.019Z,7.85
2023-03-21T14:57:19.074Z,8.02
2023-03-21T14:59:51.913Z,10.38
2023-03-21T15:02:41.599Z,6.78
2023-03-21T15:05:26.922Z,11.00
2023-03-21T15:08:20.293Z,11.57
2023-03-21T15:11:07.228Z,12.02
2023-03-21T15:13:45.620Z,7.53
2023-03-21T15:16:15.007Z,9.00
2023-03-21T15:18:44.570Z,7.03
2023-03-21T15:21:26.511Z,12.18
2023-03-21T15:24:01.865Z,9.07
2023-03-21T15:26:31.828Z,5.38
2023-03-21T15:29:00.383Z,11.43
2023-03-21T15:31:38.664Z,7.15
2023-03-21T15:34:06.307Z,9.43
2023-03-21T15:36:43.156Z,8.48
2023-03-21T15:39:17.613Z,8.38
2023-03-21T15:42:02.288Z,7.88
2023-03-21T15:44:30.479Z,6.10
2023-03-21T15:46:57.671Z,8.35
2023-03-21T15:49:29.702Z,5.82
2023-03-21T15:52:16.934Z,7.22
2023-03-21T15:54:50.357Z,7.72
2023-03-21T15:57:33.182Z,6.37
2023-03-21T16:00:25.600Z,5.93
2023-03-21T16:03:00.700Z,6.78
2023-03-21T16:05:34.191Z,10.77
2023-03-21T16:08:20.072Z,5.03
2023-03-21T16:10:48.908Z,9.23
2023-03-21T16:13:16.627Z,10.32
2023-03-21T16:15:44.328Z,7.85
2023-03-21T16:18:21.266Z,5.80
2023-03-21T16:20:49.223Z,7.35
2023-03-21T16:23:16.379Z,8.02
2023-03-21T16:25:44.627Z,5.50
2023-03-21T16:28:17.380Z,4.32
2023-03-21T16:30:45.383Z,5.28
2023-03-21T16:33:13.685Z,4.95
2023-03-21T16:35:41.259Z,4.53
2023-03-21T16:38:12.618Z,5.60
2023-03-21T16:40:43.595Z,4.45
2023-03-21T16:43:11.620Z,5.38
2023-03-21T16:45:38.747Z,5.28
2023-03-21T16:48:08.781Z,4.20
2023-03-21T16:50:42.270Z,4.15
2023-03-21T16:53:09.378Z,5.20
2023-03-21T16:55:38.789Z,6.30
2023-03-21T16:58:06.297Z,4.30
2023-03-21T17:00:33.859Z,3.85
2023-03-21T17:03:12.049Z,3.88
2023-03-21T17:05:39.038Z,6.50
2023-03-21T17:08:06.517Z,5.15
2023-03-21T17:10:33.810Z,4.85
2023-03-21T17:13:01.670Z,4.07
2023-03-21T17:15:28.864Z,5.05
2023-03-21T17:17:55.984Z,5.95
2023-03-21T17:20:31.165Z,3.67
2023-03-21T17:22:58.740Z,7.55
2023-03-21T17:25:27.205Z,9.32
2023-03-21T17:27:54.428Z,5.18
2023-03-21T17:30:34.316Z,7.15
2023-03-21T17:33:01.696Z,7.53
2023-03-21T17:35:29.169Z,5.50
2023-03-21T17:37:58.532Z,4.97
2023-03-21T17:40:29.975Z,6.18
2023-03-21T17:43:01.383Z,4.82
2023-03-21T17:45:28.648Z,6.88
2023-03-21T17:47:56.862Z,7.97
2023-03-21T17:50:30.769Z,5.50
2023-03-21T17:52:57.915Z,7.20
2023-03-21T17:55:25.070Z,5.63
2023-03-21T17:57:52.466Z,6.30
2023-03-21T18:00:29.581Z,5.78
2023-03-21T18:02:57.413Z,6.22
2023-03-21T18:05:26.533Z,6.55
2023-03-21T18:08:09.768Z,6.93
2023-03-21T18:10:38.786Z,6.65
2023-03-21T18:13:06.651Z,5.68
2023-03-21T18:15:37.613Z,6.55
2023-03-21T18:18:05.834Z,5.80
2023-03-21T18:23:21.240Z,6.15
2023-03-21T18:25:49.802Z,6.47
2023-03-21T18:28:20.572Z,8.38
2023-03-21T18:33:40.316Z,6.63
2023-03-21T18:36:09.994Z,7.75
2023-03-21T18:38:37.477Z,7.60
2023-03-21T18:41:07.820Z,7.65
2023-03-21T18:46:23.953Z,9.32
2023-03-21T18:48:51.854Z,9.25
2023-03-21T18:51:19.312Z,8.38
2023-03-21T18:53:46.501Z,8.70
2023-03-21T18:56:54.723Z,7.25
2023-03-21T18:59:01.898Z,5.65
2023-03-21T19:01:28.950Z,7.00
2023-03-21T19:04:20.113Z,7.00
2023-03-21T19:06:47.833Z,6.55
2023-03-21T19:09:15.017Z,5.03
2023-03-21T19:11:42.716Z,5.07
2023-03-21T19:14:12.912Z,5.28
2023-03-21T19:17:14.969Z,8.07
2023-03-21T19:19:29.640Z,6.85
2023-03-21T19:21:57.209Z,8.23
2023-03-21T19:24:28.267Z,7.03
2023-03-21T19:26:55.968Z,5.55
2023-03-21T19:29:23.047Z,9.02
2023-03-21T19:31:51.254Z,7.38
2023-03-21T19:34:19.076Z,6.78
2023-03-21T19:36:51.571Z,8.02
2023-03-21T19:39:22.690Z,6.65
2023-03-21T19:41:51.666Z,7.38
2023-03-21T19:44:21.605Z,8.45
2023-03-21T19:46:51.037Z,5.85
2023-03-21T19:49:34.514Z,8.05
2023-03-21T19:52:10.315Z,8.48
2023-03-21T19:54:37.668Z,8.30
2023-03-21T19:57:04.904Z,9.15
2023-03-21T19:59:32.168Z,10.93
2023-03-21T20:02:21.574Z,8.82
2023-03-21T20:04:46.786Z,10.13
2023-03-21T20:07:13.829Z,7.90
2023-03-21T20:09:51.915Z,8.68
2023-03-21T20:12:21.893Z,11.10
2023-03-21T20:14:49.251Z,9.93
2023-03-21T20:17:16.907Z,10.10
2023-03-21T20:19:43.950Z,11.57
2023-03-21T20:22:21.943Z,10.02
2023-03-21T20:24:55.219Z,11.02
2023-03-21T20:27:25.673Z,9.77
2023-03-21T20:30:09.048Z,12.27
2023-03-21T20:32:38.466Z,12.13
2023-03-21T20:35:19.205Z,12.23
2023-03-21T20:37:49.799Z,14.20
2023-03-21T20:40:18.911Z,9.88
2023-03-21T20:42:48.660Z,11.43
2023-03-21T20:45:17.295Z,10.55
2023-03-21T20:47:44.376Z,10.90
2023-03-21T20:50:14.052Z,9.05
2023-03-21T20:53:06.531Z,10.32
2023-03-21T20:55:29.550Z,10.52
2023-03-21T20:57:56.558Z,8.30
2023-03-21T21:00:24.621Z,10.77
2023-03-21T21:02:51.913Z,8.98
2023-03-21T21:05:35.487Z,10.35
2023-03-21T21:08:03.608Z,11.15
2023-03-21T21:10:33.677Z,9.55
2023-03-21T21:13:01.341Z,10.55
2023-03-21T21:15:28.815Z,10.80
2023-03-21T21:18:06.165Z,9.38
2023-03-21T21:20:35.158Z,8.18
2023-03-21T21:23:02.624Z,8.13
2023-03-21T21:25:34.181Z,7.78
2023-03-21T21:28:02.130Z,10.00
2023-03-21T21:30:32.479Z,7.17
2023-03-21T21:33:00.842Z,7.05
2023-03-21T21:35:28.174Z,8.10
2023-03-21T21:37:55.197Z,8.63
2023-03-21T21:40:23.425Z,8.18
2023-03-21T21:42:50.825Z,10.15
2023-03-21T21:45:18.975Z,9.02
2023-03-21T21:47:46.490Z,10.80
2023-03-21T21:50:14.423Z,10.98
2023-03-21T21:52:43.828Z,8.48
2023-03-21T21:55:13.081Z,8.77
2023-03-21T21:57:40.546Z,8.82
2023-03-21T22:00:13.562Z,7.88
2023-03-21T22:02:42.638Z,9.77
2023-03-21T22:05:10.545Z,8.65
2023-03-21T22:07:38.088Z,9.52
2023-03-21T22:10:06.848Z,9.77
2023-03-21T22:12:34.365Z,9.10
2023-03-21T22:15:02.060Z,8.38
2023-03-21T22:17:29.140Z,9.20
2023-03-21T22:20:05.478Z,11.02
2023-03-21T22:22:37.610Z,9.65
2023-03-21T22:25:07.998Z,7.50
2023-03-21T22:27:36.061Z,9.50
2023-03-21T22:30:05.256Z,8.88
2023-03-21T22:32:36.802Z,10.50
2023-03-21T22:35:06.942Z,8.73
2023-03-21T22:37:36.871Z,10.10
2023-03-21T22:40:08.801Z,9.05
2023-03-21T22:42:37.539Z,8.02
2023-03-21T22:45:06.135Z,10.32
2023-03-21T22:47:33.745Z,7.05
2023-03-21T22:50:00.856Z,7.25
2023-03-21T22:52:28.189Z,9.75
2023-03-21T22:54:55.480Z,8.57
2023-03-21T22:57:22.740Z,11.60
2023-03-21T22:59:49.855Z,7.60
2023-03-21T23:02:17.232Z,6.80
2023-03-21T23:04:44.451Z,6.75
2023-03-21T23:07:11.582Z,9.48
2023-03-21T23:09:38.588Z,10.13
2023-03-21T23:12:05.891Z,8.85
2023-03-21T23:14:32.893Z,6.35
2023-03-21T23:17:00.172Z,8.25
2023-03-21T23:19:28.809Z,6.47
2023-03-21T23:21:56.710Z,7.78
2023-03-21T23:24:24.193Z,7.53
2023-03-21T23:26:51.379Z,9.77
2023-03-21T23:29:18.640Z,6.63
2023-03-21T23:31:45.733Z,9.48
2023-03-21T23:34:13.792Z,7.45
2023-03-21T23:36:41.104Z,9.02
2023-03-21T23:39:09.208Z,9.50
2023-03-21T23:41:36.308Z,9.15
2023-03-21T23:44:03.829Z,11.10
2023-03-21T23:46:31.200Z,10.10
2023-03-21T23:48:58.304Z,11.60
2023-03-21T23:51:25.427Z,12.80
2023-03-21T23:53:53.366Z,16.52
2023-03-21T23:56:24.060Z,10.18
2023-03-21T23:58:51.715Z,11.32
